sensor_id;sensor_type;location;lat;lon;timestamp;pressure;altitude;pressure_sealevel;temperature;humidity
30516;BME280;17297;54.022;10.760;2022-09-09T00:00:53;100780.63;;;18.14;74.72
30516;BME280;17297;54.022;10.760;2022-09-09T00:03:25;100783.38;;;18.14;74.54
30516;BME280;17297;54.022;10.760;2022-09-09T00:06:03;100783.38;;;18.14;74.65
30516;BME280;17297;54.022;10.760;2022-09-09T00:11:17;100777.09;;;18.13;74.65
30516;BME280;17297;54.022;10.760;2022-09-09T00:13:52;100777.09;;;18.13;74.94
30516;BME280;17297;54.022;10.760;2022-09-09T00:16:22;100775.19;;;18.14;74.72
30516;BME280;17297;54.022;10.760;2022-09-09T00:21:23;100778.97;;;18.13;74.99
30516;BME280;17297;54.022;10.760;2022-09-09T00:23:54;100781.47;;;18.14;74.62
30516;BME280;17297;54.022;10.760;2022-09-09T00:26:45;100777.91;;;18.14;74.64
30516;BME280;17297;54.022;10.760;2022-09-09T00:29:26;100777.91;;;18.14;74.68
30516;BME280;17297;54.022;10.760;2022-09-09T00:32:04;100780.38;;;18.15;74.84
30516;BME280;17297;54.022;10.760;2022-09-09T00:34:31;100776.84;;;18.15;74.91
30516;BME280;17297;54.022;10.760;2022-09-09T00:36:58;100775.75;;;18.16;74.83
30516;BME280;17297;54.022;10.760;2022-09-09T00:39:34;100770.31;;;18.16;74.83
30516;BME280;17297;54.022;10.760;2022-09-09T00:44:36;100767.38;;;18.17;74.99
30516;BME280;17297;54.022;10.760;2022-09-09T00:47:26;100760.03;;;18.18;74.80
30516;BME280;17297;54.022;10.760;2022-09-09T00:50:08;100767.09;;;18.19;74.65
30516;BME280;17297;54.022;10.760;2022-09-09T00:58:08;100758.94;;;18.19;74.75
30516;BME280;17297;54.022;10.760;2022-09-09T01:00:49;100758.94;;;18.19;74.70
30516;BME280;17297;54.022;10.760;2022-09-09T01:06:02;100757.06;;;18.19;74.73
30516;BME280;17297;54.022;10.760;2022-09-09T01:08:36;100751.63;;;18.19;75.00
30516;BME280;17297;54.022;10.760;2022-09-09T01:11:11;100762.25;;;18.21;74.80
30516;BME280;17297;54.022;10.760;2022-09-09T01:13:42;100755.16;;;18.20;74.69
30516;BME280;17297;54.022;10.760;2022-09-09T01:16:12;100757.88;;;18.20;74.67
30516;BME280;17297;54.022;10.760;2022-09-09T01:18:47;100746.41;;;18.18;74.88
30516;BME280;17297;54.022;10.760;2022-09-09T01:27:01;100753.16;;;18.15;74.80
30516;BME280;17297;54.022;10.760;2022-09-09T01:29:27;100752.34;;;18.15;74.92
30516;BME280;17297;54.022;10.760;2022-09-09T01:34:56;100749.63;;;18.15;74.94
30516;BME280;17297;54.022;10.760;2022-09-09T01:37:21;100757.78;;;18.15;74.71
30516;BME280;17297;54.022;10.760;2022-09-09T01:39:47;100755.06;;;18.15;74.74
30516;BME280;17297;54.022;10.760;2022-09-09T01:42:15;100751.50;;;18.14;74.82
30516;BME280;17297;54.022;10.760;2022-09-09T01:44:41;100759.69;;;18.14;74.77
30516;BME280;17297;54.022;10.760;2022-09-09T01:47:07;100758.59;;;18.15;74.84
30516;BME280;17297;54.022;10.760;2022-09-09T01:49:35;100761.31;;;18.15;74.97
30516;BME280;17297;54.022;10.760;2022-09-09T01:52:08;100752.34;;;18.15;74.81
30516;BME280;17297;54.022;10.760;2022-09-09T01:54:36;100749.63;;;18.15;74.96
30516;BME280;17297;54.022;10.760;2022-09-09T02:05:20;100752.59;;;18.13;74.94
30516;BME280;17297;54.022;10.760;2022-09-09T02:08:00;100754.47;;;18.13;74.76
30516;BME280;17297;54.022;10.760;2022-09-09T02:13:33;100749.03;;;18.13;74.75
30516;BME280;17297;54.022;10.760;2022-09-09T02:19:09;100756.13;;;18.14;74.98
30516;BME280;17297;54.022;10.760;2022-09-09T02:21:49;100756.97;;;18.14;74.98
30516;BME280;17297;54.022;10.760;2022-09-09T02:24:15;100753.41;;;18.14;74.65
30516;BME280;17297;54.022;10.760;2022-09-09T02:26:50;100756.13;;;18.14;74.84
30516;BME280;17297;54.022;10.760;2022-09-09T02:29:25;100760.50;;;18.15;74.75
30516;BME280;17297;54.022;10.760;2022-09-09T02:31:53;100755.06;;;18.15;74.72
30516;BME280;17297;54.022;10.760;2022-09-09T02:34:27;100749.63;;;18.15;74.83
30516;BME280;17297;54.022;10.760;2022-09-09T02:36:54;100752.94;;;18.17;74.96
30516;BME280;17297;54.022;10.760;2022-09-09T02:39:22;100758.38;;;18.17;75.00
30516;BME280;17297;54.022;10.760;2022-09-09T02:41:49;100750.22;;;18.17;75.07
30516;BME280;17297;54.022;10.760;2022-09-09T02:44:17;100752.13;;;18.16;74.88
30516;BME280;17297;54.022;10.760;2022-09-09T02:49:31;100762.75;;;18.18;75.02
30516;BME280;17297;54.022;10.760;2022-09-09T02:52:07;100767.09;;;18.19;74.96
30516;BME280;17297;54.022;10.760;2022-09-09T02:54:37;100766.28;;;18.18;75.00
30516;BME280;17297;54.022;10.760;2022-09-09T02:57:27;100766.06;;;18.20;75.04
30516;BME280;17297;54.022;10.760;2022-09-09T02:59:59;100771.72;;;18.18;75.06
30516;BME280;17297;54.022;10.760;2022-09-09T03:02:25;100769.84;;;18.19;74.95
30516;BME280;17297;54.022;10.760;2022-09-09T03:04:56;100769.00;;;18.18;75.00
30516;BME280;17297;54.022;10.760;2022-09-09T03:07:21;100763.56;;;18.18;75.09
30516;BME280;17297;54.022;10.760;2022-09-09T03:09:48;100765.47;;;18.18;74.75
30516;BME280;17297;54.022;10.760;2022-09-09T03:12:14;100760.84;;;18.18;74.92
30516;BME280;17297;54.022;10.760;2022-09-09T03:14:40;100769.84;;;18.19;74.86
30516;BME280;17297;54.022;10.760;2022-09-09T03:17:06;100771.50;;;18.20;74.88
30516;BME280;17297;54.022;10.760;2022-09-09T03:19:37;100771.72;;;18.18;74.85
30516;BME280;17297;54.022;10.760;2022-09-09T03:22:03;100780.72;;;18.19;74.92
30516;BME280;17297;54.022;10.760;2022-09-09T03:24:30;100785.34;;;18.18;74.82
30516;BME280;17297;54.022;10.760;2022-09-09T03:26:56;100775.28;;;18.19;75.02
30516;BME280;17297;54.022;10.760;2022-09-09T03:29:22;100784.84;;;18.21;74.96
30516;BME280;17297;54.022;10.760;2022-09-09T03:31:49;100785.13;;;18.20;75.06
30516;BME280;17297;54.022;10.760;2022-09-09T03:34:16;100787.84;;;18.20;74.87
30516;BME280;17297;54.022;10.760;2022-09-09T03:36:42;100786.75;;;18.21;74.94
30516;BME280;17297;54.022;10.760;2022-09-09T03:39:07;100783.22;;;18.20;75.12
30516;BME280;17297;54.022;10.760;2022-09-09T03:41:34;100773.97;;;18.21;74.95
30516;BME280;17297;54.022;10.760;2022-09-09T03:44:01;100771.25;;;18.21;74.94
30516;BME280;17297;54.022;10.760;2022-09-09T03:46:29;100776.69;;;18.21;74.89
30516;BME280;17297;54.022;10.760;2022-09-09T03:48:55;100771.25;;;18.21;74.90
30516;BME280;17297;54.022;10.760;2022-09-09T03:51:20;100776.69;;;18.21;74.85
30516;BME280;17297;54.022;10.760;2022-09-09T03:53:47;100776.94;;;18.20;74.97
30516;BME280;17297;54.022;10.760;2022-09-09T03:56:14;100772.31;;;18.20;75.05
30516;BME280;17297;54.022;10.760;2022-09-09T03:58:39;100772.31;;;18.20;75.01
30516;BME280;17297;54.022;10.760;2022-09-09T04:01:12;100768.78;;;18.20;74.95
30516;BME280;17297;54.022;10.760;2022-09-09T04:03:40;100768.78;;;18.20;74.90
30516;BME280;17297;54.022;10.760;2022-09-09T04:06:07;100767.97;;;18.19;74.88
30516;BME280;17297;54.022;10.760;2022-09-09T04:08:34;100773.41;;;18.19;75.22
30516;BME280;17297;54.022;10.760;2022-09-09T04:11:01;100775.28;;;18.19;75.27
30516;BME280;17297;54.022;10.760;2022-09-09T04:13:30;100770.69;;;18.19;75.05
30516;BME280;17297;54.022;10.760;2022-09-09T04:15:58;100783.44;;;18.19;75.13
30516;BME280;17297;54.022;10.760;2022-09-09T04:18:24;100781.81;;;18.18;75.01
30516;BME280;17297;54.022;10.760;2022-09-09T04:20:52;100788.31;;;18.17;75.05
30516;BME280;17297;54.022;10.760;2022-09-09T04:23:20;100787.50;;;18.16;75.13
30516;BME280;17297;54.022;10.760;2022-09-09T04:25:51;100792.09;;;18.16;74.98
30516;BME280;17297;54.022;10.760;2022-09-09T04:28:19;100793.16;;;18.15;74.96
30516;BME280;17297;54.022;10.760;2022-09-09T04:30:45;100782.53;;;18.13;74.86
30516;BME280;17297;54.022;10.760;2022-09-09T04:33:12;100781.69;;;18.13;75.15
30516;BME280;17297;54.022;10.760;2022-09-09T04:35:38;100780.88;;;18.12;74.97
30516;BME280;17297;54.022;10.760;2022-09-09T04:38:05;100792.00;;;18.11;74.94
30516;BME280;17297;54.022;10.760;2022-09-09T04:40:33;100793.91;;;18.10;75.06
30516;BME280;17297;54.022;10.760;2022-09-09T04:43:01;100803.94;;;18.10;74.94
30516;BME280;17297;54.022;10.760;2022-09-09T04:45:28;100798.75;;;18.08;75.01
30516;BME280;17297;54.022;10.760;2022-09-09T04:47:54;100790.59;;;18.08;74.78
30516;BME280;17297;54.022;10.760;2022-09-09T04:50:20;100803.38;;;18.08;74.78
30516;BME280;17297;54.022;10.760;2022-09-09T04:52:46;100801.72;;;18.07;74.85
30516;BME280;17297;54.022;10.760;2022-09-09T04:55:12;100814.75;;;18.05;75.00
30516;BME280;17297;54.022;10.760;2022-09-09T04:57:40;100813.66;;;18.06;74.92
30516;BME280;17297;54.022;10.760;2022-09-09T05:00:06;100810.34;;;18.04;74.89
30516;BME280;17297;54.022;10.760;2022-09-09T05:02:37;100815.78;;;18.04;75.00
30516;BME280;17297;54.022;10.760;2022-09-09T05:05:04;100813.94;;;18.04;75.03
30516;BME280;17297;54.022;10.760;2022-09-09T05:07:29;100815.22;;;18.02;75.00
30516;BME280;17297;54.022;10.760;2022-09-09T05:09:56;100809.78;;;18.02;74.93
30516;BME280;17297;54.022;10.760;2022-09-09T05:12:23;100816.28;;;18.00;75.25
30516;BME280;17297;54.022;10.760;2022-09-09T05:14:53;100826.13;;;18.02;75.08
30516;BME280;17297;54.022;10.760;2022-09-09T05:17:19;100829.66;;;18.02;75.12
30516;BME280;17297;54.022;10.760;2022-09-09T05:19:44;100842.19;;;18.03;75.28
30516;BME280;17297;54.022;10.760;2022-09-09T05:22:10;100825.03;;;18.03;74.99
30516;BME280;17297;54.022;10.760;2022-09-09T05:24:43;100827.53;;;18.04;75.25
30516;BME280;17297;54.022;10.760;2022-09-09T05:27:09;100831.09;;;18.05;75.07
30516;BME280;17297;54.022;10.760;2022-09-09T05:29:37;100822.09;;;18.04;75.30
30516;BME280;17297;54.022;10.760;2022-09-09T05:32:05;100822.91;;;18.05;74.96
30516;BME280;17297;54.022;10.760;2022-09-09T05:34:31;100821.25;;;18.04;75.09
30516;BME280;17297;54.022;10.760;2022-09-09T05:36:56;100824.56;;;18.06;75.17
30516;BME280;17297;54.022;10.760;2022-09-09T05:39:23;100833.53;;;18.06;75.23
30516;BME280;17297;54.022;10.760;2022-09-09T05:41:48;100837.09;;;18.07;75.20
30516;BME280;17297;54.022;10.760;2022-09-09T05:44:14;100842.53;;;18.07;75.11
30516;BME280;17297;54.022;10.760;2022-09-09T05:46:39;100853.44;;;18.07;75.01
30516;BME280;17297;54.022;10.760;2022-09-09T05:49:05;100840.41;;;18.09;75.11
30516;BME280;17297;54.022;10.760;2022-09-09T05:51:32;100846.69;;;18.09;75.11
30516;BME280;17297;54.022;10.760;2022-09-09T05:54:02;100844.78;;;18.10;75.13
30516;BME280;17297;54.022;10.760;2022-09-09T05:56:30;100829.53;;;18.09;75.28
30516;BME280;17297;54.022;10.760;2022-09-09T05:58:58;100828.69;;;18.08;75.46
30516;BME280;17297;54.022;10.760;2022-09-09T06:01:27;100833.31;;;18.08;75.10
30516;BME280;17297;54.022;10.760;2022-09-09T06:03:54;100836.63;;;18.10;75.33
30516;BME280;17297;54.022;10.760;2022-09-09T06:06:23;100833.88;;;18.10;75.36
30516;BME280;17297;54.022;10.760;2022-09-09T06:08:53;100833.66;;;18.11;75.21
30516;BME280;17297;54.022;10.760;2022-09-09T06:11:22;100833.66;;;18.11;75.15
30516;BME280;17297;54.022;10.760;2022-09-09T06:13:49;100848.09;;;18.12;75.39
30516;BME280;17297;54.022;10.760;2022-09-09T06:16:19;100838.03;;;18.12;75.28
30516;BME280;17297;54.022;10.760;2022-09-09T06:18:46;100840.53;;;18.14;75.18
30516;BME280;17297;54.022;10.760;2022-09-09T06:21:18;100839.72;;;18.13;75.29
30516;BME280;17297;54.022;10.760;2022-09-09T06:23:46;100844.91;;;18.15;75.08
30516;BME280;17297;54.022;10.760;2022-09-09T06:26:15;100844.66;;;18.16;75.26
30516;BME280;17297;54.022;10.760;2022-09-09T06:28:44;100855.09;;;18.19;75.35
30516;BME280;17297;54.022;10.760;2022-09-09T06:31:12;100848.56;;;18.20;75.10
30516;BME280;17297;54.022;10.760;2022-09-09T06:33:42;100849.00;;;18.29;75.50
30516;BME280;17297;54.022;10.760;2022-09-09T06:36:12;100851.59;;;18.36;75.30
30516;BME280;17297;54.022;10.760;2022-09-09T06:38:38;100844.56;;;18.40;75.41
30516;BME280;17297;54.022;10.760;2022-09-09T06:41:04;100848.72;;;18.42;75.31
30516;BME280;17297;54.022;10.760;2022-09-09T06:43:31;100849.31;;;18.44;75.02
30516;BME280;17297;54.022;10.760;2022-09-09T06:48:31;100850.69;;;18.47;75.29
30516;BME280;17297;54.022;10.760;2022-09-09T06:51:04;100857.00;;;18.48;75.27
30516;BME280;17297;54.022;10.760;2022-09-09T06:53:30;100867.63;;;18.49;75.08
30516;BME280;17297;54.022;10.760;2022-09-09T06:56:17;100861.38;;;18.49;75.08
30516;BME280;17297;54.022;10.760;2022-09-09T06:58:43;100864.69;;;18.51;75.01
30516;BME280;17297;54.022;10.760;2022-09-09T07:01:13;100858.16;;;18.52;75.08
30516;BME280;17297;54.022;10.760;2022-09-09T07:03:40;100853.31;;;18.54;74.99
30516;BME280;17297;54.022;10.760;2022-09-09T07:06:06;100864.53;;;18.57;75.15
30516;BME280;17297;54.022;10.760;2022-09-09T07:08:33;100865.97;;;18.60;75.03
30516;BME280;17297;54.022;10.760;2022-09-09T07:11:06;100865.47;;;18.63;75.03
30516;BME280;17297;54.022;10.760;2022-09-09T07:13:34;100859.63;;;18.71;74.80
30516;BME280;17297;54.022;10.760;2022-09-09T07:16:11;100868.28;;;18.68;74.72
30516;BME280;17297;54.022;10.760;2022-09-09T07:18:37;100870.06;;;18.74;75.05
30516;BME280;17297;54.022;10.760;2022-09-09T07:21:03;100864.94;;;18.78;74.99
30516;BME280;17297;54.022;10.760;2022-09-09T07:23:30;100869.91;;;18.81;75.09
30516;BME280;17297;54.022;10.760;2022-09-09T07:25:59;100872.13;;;18.84;74.99
30516;BME280;17297;54.022;10.760;2022-09-09T07:28:25;100870.34;;;18.89;75.03
30516;BME280;17297;54.022;10.760;2022-09-09T07:30:59;100875.06;;;18.94;75.13
30516;BME280;17297;54.022;10.760;2022-09-09T07:33:26;100869.94;;;18.98;74.96
30516;BME280;17297;54.022;10.760;2022-09-09T07:35:52;100874.06;;;19.00;74.68
30516;BME280;17297;54.022;10.760;2022-09-09T07:38:19;100872.19;;;19.01;74.85
30516;BME280;17297;54.022;10.760;2022-09-09T07:40:46;100872.19;;;19.01;74.59
30516;BME280;17297;54.022;10.760;2022-09-09T07:43:11;100875.13;;;18.99;74.55
30516;BME280;17297;54.022;10.760;2022-09-09T07:45:37;100882.75;;;18.97;74.39
30516;BME280;17297;54.022;10.760;2022-09-09T07:48:03;100880.16;;;18.90;74.23
30516;BME280;17297;54.022;10.760;2022-09-09T07:50:29;100886.94;;;18.88;74.51
30516;BME280;17297;54.022;10.760;2022-09-09T07:52:55;100894.53;;;18.86;74.52
30516;BME280;17297;54.022;10.760;2022-09-09T07:55:21;100892.88;;;18.85;74.44
30516;BME280;17297;54.022;10.760;2022-09-09T07:57:51;100893.13;;;18.83;74.23
30516;BME280;17297;54.022;10.760;2022-09-09T08:00:17;100882.81;;;18.85;74.62
30516;BME280;17297;54.022;10.760;2022-09-09T08:02:49;100894.03;;;18.89;74.55
30516;BME280;17297;54.022;10.760;2022-09-09T08:05:15;100893.56;;;18.92;74.69
30516;BME280;17297;54.022;10.760;2022-09-09T08:07:43;100886.88;;;19.00;74.88
30516;BME280;17297;54.022;10.760;2022-09-09T08:10:09;100888.59;;;19.06;74.70
30516;BME280;17297;54.022;10.760;2022-09-09T08:12:37;100888.72;;;19.11;74.87
30516;BME280;17297;54.022;10.760;2022-09-09T08:15:03;100892.34;;;19.17;74.60
30516;BME280;17297;54.022;10.760;2022-09-09T08:17:31;100889.47;;;19.23;74.61
30516;BME280;17297;54.022;10.760;2022-09-09T08:20:02;100889.03;;;19.31;74.76
30516;BME280;17297;54.022;10.760;2022-09-09T08:22:31;100893.00;;;19.41;74.77
30516;BME280;17297;54.022;10.760;2022-09-09T08:24:56;100883.59;;;19.48;74.42
30516;BME280;17297;54.022;10.760;2022-09-09T08:27:22;100885.91;;;19.56;74.58
30516;BME280;17297;54.022;10.760;2022-09-09T08:29:48;100897.25;;;19.65;74.38
30516;BME280;17297;54.022;10.760;2022-09-09T08:32:13;100893.28;;;19.73;74.51
30516;BME280;17297;54.022;10.760;2022-09-09T08:34:39;100889.56;;;19.79;74.53
30516;BME280;17297;54.022;10.760;2022-09-09T08:37:09;100895.56;;;19.81;74.14
30516;BME280;17297;54.022;10.760;2022-09-09T08:39:38;100902.44;;;19.83;73.96
30516;BME280;17297;54.022;10.760;2022-09-09T08:47:54;100907.84;;;19.78;74.13
30516;BME280;17297;54.022;10.760;2022-09-09T08:50:28;100910.81;;;19.77;74.08
30516;BME280;17297;54.022;10.760;2022-09-09T08:53:09;100914.63;;;19.76;74.01
30516;BME280;17297;54.022;10.760;2022-09-09T08:55:48;100919.50;;;19.74;74.04
30516;BME280;17297;54.022;10.760;2022-09-09T08:58:27;100914.84;;;19.74;73.80
30516;BME280;17297;54.022;10.760;2022-09-09T09:06:26;100935.03;;;19.73;73.76
30516;BME280;17297;54.022;10.760;2022-09-09T09:11:47;100920.00;;;19.71;73.68
30516;BME280;17297;54.022;10.760;2022-09-09T09:14:28;100917.03;;;19.72;73.90
30516;BME280;17297;54.022;10.760;2022-09-09T09:17:01;100913.44;;;19.72;73.76
30516;BME280;17297;54.022;10.760;2022-09-09T09:19:29;100914.03;;;19.74;73.93
30516;BME280;17297;54.022;10.760;2022-09-09T09:22:06;100923.63;;;19.76;73.85
30516;BME280;17297;54.022;10.760;2022-09-09T09:27:18;100928.41;;;19.86;73.79
30516;BME280;17297;54.022;10.760;2022-09-09T09:29:50;100916.16;;;19.89;73.75
30516;BME280;17297;54.022;10.760;2022-09-09T09:32:18;100921.63;;;19.89;73.74
30516;BME280;17297;54.022;10.760;2022-09-09T09:34:54;100922.22;;;19.91;73.61
30516;BME280;17297;54.022;10.760;2022-09-09T09:37:29;100919.72;;;19.89;73.52
30516;BME280;17297;54.022;10.760;2022-09-09T09:39:56;100914.03;;;19.91;73.31
30516;BME280;17297;54.022;10.760;2022-09-09T09:42:22;100918.13;;;19.93;73.20
30516;BME280;17297;54.022;10.760;2022-09-09T09:44:48;100923.34;;;19.95;73.37
30516;BME280;17297;54.022;10.760;2022-09-09T09:47:19;100923.09;;;19.96;73.30
30516;BME280;17297;54.022;10.760;2022-09-09T09:49:57;100921.78;;;19.99;73.60
30516;BME280;17297;54.022;10.760;2022-09-09T09:52:31;100927.56;;;20.02;73.53
30516;BME280;17297;54.022;10.760;2022-09-09T09:55:03;100926.00;;;20.06;73.51
30516;BME280;17297;54.022;10.760;2022-09-09T09:57:31;100919.75;;;20.11;73.35
30516;BME280;17297;54.022;10.760;2022-09-09T10:00:20;100924.72;;;20.14;73.42
30516;BME280;17297;54.022;10.760;2022-09-09T10:03:27;100913.56;;;20.16;73.07
30516;BME280;17297;54.022;10.760;2022-09-09T10:05:55;100909.47;;;20.18;73.09
30516;BME280;17297;54.022;10.760;2022-09-09T10:08:24;100906.56;;;20.25;73.50
30516;BME280;17297;54.022;10.760;2022-09-09T10:11:18;100910.50;;;20.34;73.19
30516;BME280;17297;54.022;10.760;2022-09-09T10:19:30;100919.97;;;20.48;73.00
30516;BME280;17297;54.022;10.760;2022-09-09T10:22:24;100921.38;;;20.51;72.96
30516;BME280;17297;54.022;10.760;2022-09-09T10:27:51;100915.44;;;20.54;72.57
30516;BME280;17297;54.022;10.760;2022-09-09T10:33:24;100913.53;;;20.55;72.63
30516;BME280;17297;54.022;10.760;2022-09-09T10:36:03;100914.66;;;20.59;72.86
30516;BME280;17297;54.022;10.760;2022-09-09T10:47:05;100912.78;;;20.86;72.20
30516;BME280;17297;54.022;10.760;2022-09-09T10:49:59;100920.00;;;20.97;72.45
30516;BME280;17297;54.022;10.760;2022-09-09T10:55:29;100917.22;;;21.19;72.01
30516;BME280;17297;54.022;10.760;2022-09-09T10:58:00;100917.28;;;21.30;72.11
30516;BME280;17297;54.022;10.760;2022-09-09T11:00:44;100920.41;;;21.38;72.10
30516;BME280;17297;54.022;10.760;2022-09-09T11:03:29;100916.88;;;21.43;71.51
30516;BME280;17297;54.022;10.760;2022-09-09T11:06:06;100907.59;;;21.44;70.60
30516;BME280;17297;54.022;10.760;2022-09-09T11:08:38;100918.56;;;21.44;70.27
30516;BME280;17297;54.022;10.760;2022-09-09T11:11:27;100919.94;;;21.47;70.56
30516;BME280;17297;54.022;10.760;2022-09-09T11:16:35;100920.53;;;21.54;69.99
30516;BME280;17297;54.022;10.760;2022-09-09T11:22:03;100926.06;;;21.59;70.03
30516;BME280;17297;54.022;10.760;2022-09-09T11:24:38;100923.88;;;21.61;69.88
30516;BME280;17297;54.022;10.760;2022-09-09T11:27:20;100930.44;;;21.60;69.99
30516;BME280;17297;54.022;10.760;2022-09-09T11:40:28;100928.91;;;21.42;69.19
30516;BME280;17297;54.022;10.760;2022-09-09T11:43:05;100929.16;;;21.35;68.98
30516;BME280;17297;54.022;10.760;2022-09-09T11:45:34;100934.81;;;21.34;69.21
30516;BME280;17297;54.022;10.760;2022-09-09T11:48:02;100933.19;;;21.33;68.97
30516;BME280;17297;54.022;10.760;2022-09-09T11:50:34;100943.88;;;21.34;69.31
30516;BME280;17297;54.022;10.760;2022-09-09T11:55:39;100939.56;;;21.38;68.76
30516;BME280;17297;54.022;10.760;2022-09-09T12:00:38;100948.78;;;21.32;68.76
30516;BME280;17297;54.022;10.760;2022-09-09T12:03:06;100946.88;;;21.33;68.82
30516;BME280;17297;54.022;10.760;2022-09-09T12:05:51;100936.84;;;21.38;68.53
30516;BME280;17297;54.022;10.760;2022-09-09T12:08:27;100948.06;;;21.42;68.43
30516;BME280;17297;54.022;10.760;2022-09-09T12:10:56;100944.00;;;21.44;68.21
30516;BME280;17297;54.022;10.760;2022-09-09T12:13:24;100939.63;;;21.43;67.83
30516;BME280;17297;54.022;10.760;2022-09-09T12:15:55;100935.22;;;21.42;67.72
30516;BME280;17297;54.022;10.760;2022-09-09T12:18:23;100934.66;;;21.40;67.92
30516;BME280;17297;54.022;10.760;2022-09-09T12:21:02;100922.88;;;21.40;67.94
30516;BME280;17297;54.022;10.760;2022-09-09T12:23:55;100930.56;;;21.43;67.88
30516;BME280;17297;54.022;10.760;2022-09-09T12:26:43;100933.34;;;21.48;68.00
30516;BME280;17297;54.022;10.760;2022-09-09T12:29:25;100932.84;;;21.51;67.34
30516;BME280;17297;54.022;10.760;2022-09-09T12:32:09;100930.66;;;21.53;67.30
30516;BME280;17297;54.022;10.760;2022-09-09T12:34:46;100936.44;;;21.57;67.06
30516;BME280;17297;54.022;10.760;2022-09-09T12:40:23;100941.13;;;21.61;67.13
30516;BME280;17297;54.022;10.760;2022-09-09T12:42:49;100944.66;;;21.62;66.63
30516;BME280;17297;54.022;10.760;2022-09-09T12:45:20;100943.59;;;21.63;66.61
30516;BME280;17297;54.022;10.760;2022-09-09T12:47:52;100941.69;;;21.63;66.48
30516;BME280;17297;54.022;10.760;2022-09-09T12:50:31;100927.72;;;21.65;66.20
30516;BME280;17297;54.022;10.760;2022-09-09T12:52:59;100926.66;;;21.66;65.85
30516;BME280;17297;54.022;10.760;2022-09-09T12:55:32;100926.94;;;21.70;65.81
30516;BME280;17297;54.022;10.760;2022-09-09T12:57:59;100930.81;;;21.74;65.50
30516;BME280;17297;54.022;10.760;2022-09-09T13:00:26;100921.81;;;21.78;65.32
30516;BME280;17297;54.022;10.760;2022-09-09T13:02:55;100924.03;;;21.81;65.22
30516;BME280;17297;54.022;10.760;2022-09-09T13:05:24;100924.03;;;21.81;64.81
30516;BME280;17297;54.022;10.760;2022-09-09T13:07:51;100930.31;;;21.82;64.80
30516;BME280;17297;54.022;10.760;2022-09-09T13:10:26;100921.00;;;21.83;64.70
30516;BME280;17297;54.022;10.760;2022-09-09T13:12:54;100918.28;;;21.83;64.60
30516;BME280;17297;54.022;10.760;2022-09-09T13:15:24;100915.53;;;21.83;64.35
30516;BME280;17297;54.022;10.760;2022-09-09T13:17:59;100916.09;;;21.85;64.31
30516;BME280;17297;54.022;10.760;2022-09-09T13:20:27;100909.00;;;21.89;64.24
30516;BME280;17297;54.022;10.760;2022-09-09T13:22:54;100903.81;;;21.92;63.10
30516;BME280;17297;54.022;10.760;2022-09-09T13:25:24;100904.69;;;21.98;62.83
30516;BME280;17297;54.022;10.760;2022-09-09T13:28:02;100907.16;;;22.00;63.29
30516;BME280;17297;54.022;10.760;2022-09-09T13:30:31;100913.19;;;22.02;62.87
30516;BME280;17297;54.022;10.760;2022-09-09T13:35:49;100921.44;;;22.07;62.98
30516;BME280;17297;54.022;10.760;2022-09-09T13:38:16;100915.44;;;22.10;62.98
30516;BME280;17297;54.022;10.760;2022-09-09T13:40:56;100910.22;;;22.08;62.56
30516;BME280;17297;54.022;10.760;2022-09-09T13:43:24;100911.88;;;22.09;62.38
30516;BME280;17297;54.022;10.760;2022-09-09T13:46:01;100917.06;;;22.11;62.47
30516;BME280;17297;54.022;10.760;2022-09-09T13:48:27;100918.47;;;22.13;62.40
30516;BME280;17297;54.022;10.760;2022-09-09T13:50:58;100917.16;;;22.16;62.48
30516;BME280;17297;54.022;10.760;2022-09-09T13:53:24;100922.91;;;22.20;62.46
30516;BME280;17297;54.022;10.760;2022-09-09T13:55:50;100916.09;;;22.22;62.89
30516;BME280;17297;54.022;10.760;2022-09-09T13:58:17;100919.63;;;22.23;63.27
30516;BME280;17297;54.022;10.760;2022-09-09T14:00:45;100920.16;;;22.20;63.19
30516;BME280;17297;54.022;10.760;2022-09-09T14:03:12;100920.16;;;22.20;63.10
30516;BME280;17297;54.022;10.760;2022-09-09T14:05:37;100916.28;;;22.16;62.93
30516;BME280;17297;54.022;10.760;2022-09-09T14:08:07;100910.00;;;22.15;63.21
30516;BME280;17297;54.022;10.760;2022-09-09T14:10:33;100905.59;;;22.14;63.50
30516;BME280;17297;54.022;10.760;2022-09-09T14:13:01;100912.97;;;22.13;63.43
30516;BME280;17297;54.022;10.760;2022-09-09T14:15:26;100914.09;;;22.12;62.93
30516;BME280;17297;54.022;10.760;2022-09-09T14:17:52;100914.91;;;22.13;63.10
30516;BME280;17297;54.022;10.760;2022-09-09T14:20:17;100914.34;;;22.11;63.13
30516;BME280;17297;54.022;10.760;2022-09-09T14:22:44;100915.16;;;22.11;62.62
30516;BME280;17297;54.022;10.760;2022-09-09T14:25:09;100908.03;;;22.10;62.81
30516;BME280;17297;54.022;10.760;2022-09-09T14:27:35;100914.63;;;22.09;62.78
30516;BME280;17297;54.022;10.760;2022-09-09T14:30:00;100904.47;;;22.10;62.87
30516;BME280;17297;54.022;10.760;2022-09-09T14:32:26;100907.22;;;22.10;62.48
30516;BME280;17297;54.022;10.760;2022-09-09T14:34:52;100907.22;;;22.10;62.50
30516;BME280;17297;54.022;10.760;2022-09-09T14:37:18;100912.41;;;22.11;62.45
30516;BME280;17297;54.022;10.760;2022-09-09T14:39:44;100911.34;;;22.12;62.29
30516;BME280;17297;54.022;10.760;2022-09-09T14:42:13;100911.34;;;22.12;62.24
30516;BME280;17297;54.022;10.760;2022-09-09T14:44:38;100912.16;;;22.13;62.00
30516;BME280;17297;54.022;10.760;2022-09-09T14:47:05;100905.88;;;22.12;61.94